Flugplatz Düsseldorf (EDDL)

Hier findest Du alle Informationen zum Flugplatz Düsseldorf (EDDL).

Informationen für Piloten zum Flugplatz Düsseldorf

Hier findest Du alle relevanten Informationen, die Du als Pilot benötigst, um Düsseldorf anzufliegen.

Flugplatz: Düsseldorf ICAO-Code: EDDL
Frequenz Turm: 118,300 Mhz GAFOR Gebiet: -2
Frequenz Ground: 121,900 Mhz Mogas: nein
Platzrunde: - Landegebühr: -
Platzhöhe: - Sunrise: 04:15 Uhr UTC
Pisten: 05R/23L - 2.700 m x 45 m, ASPH Sunset: 18:59 Uhr UTC

Flugwetter am Flugplatz Düsseldorf

Die METAR Information stammen aus EDDL.

METAR Code:
2022/07/28 15:20
EDDL 281520Z AUTO 05009KT CAVOK 24/09 Q1016 NOSIG

Temperatur: 27,6 °C Niederschlag: - Wind: 6,0 kt
Temperatur (min.): 25,7 °C Luftdruck: 1009 hPa Windrichtung: 120 °
Temperatur (max.): 30,2 °C Luftfeuchtigkeit: 50 % Bewölkung: -

Flugschulen am Flugplatz Düsseldorf

Am Flugplatz Düsseldorf gibt es leider keine Flugschule.

Benachbarte Flugplätze und Flugschulen

Es gibt 19 weitere Flugplätze in einem Umkreis von 50 km um den Flugplatz Düsseldorf.

Jetzt anmelden

Passwort vergessen

Umfrage Archiv

Sendet Ihr ADS-B und/oder FLARM?

Ja
83.4 %
Nein
16.6 %
Stimmen: 199 | Diskussion
Anzeige: Roland Aircraft
Statistik Alle Mitglieder

Aktuell sind 60 Besucher online, davon 1 Mitglied und 59 Gäste.


Mitglieder online:
monstertyp 

Anzeige: ULPower Aero Engines Anzeige: Pocket FMS